Sankoumaru 31 — JD2200 — position and weather

sailwx.info

Track history (hours):
 
Tides and Currents Weather Stations Pressure Air Temp Water Temp Dewpoint Dewpoint Depression Visibility Wind Speed Wind Dir Waves Ship Positions

Sankoumaru 31

Last reported at 2016-May-22 08:11 UTC. Time now 2016-May-30 12:36 UTC.
Position N 34°12' E 134°54'.
Warning: this ship's position is 8 days out of date.

Length 75 m; draft 5 m.

Type: Cargo ship. MMSI: 431501842.

Date/timePositionNaut miles runAvg speedWind from/ knotsBaromVisibWave heightAir tempDewpointWater temp
2016-May-22 08:11N 34°12' E 134°54'812.4
2016-May-22 07:34N 34°14' E 135°03'3 0.7
2016-May-22 02:32N 34°14' E 135°07'1 1.0
2016-May-22 01:34N 34°15' E 135°06'0 0.2
2016-May-22 00:33N 34°15' E 135°06'0 0.1
2016-May-21 23:33N 34°15' E 135°06'0 0.0
2016-May-21 22:33N 34°15' E 135°06'0 0.0
2016-May-21 21:33N 34°15' E 135°06'0 0.0
2016-May-21 20:33N 34°15' E 135°06'0 0.0
2016-May-21 19:33N 34°15' E 135°06'0 0.0
2016-May-21 18:33N 34°15' E 135°06'0 0.0
2016-May-21 17:33N 34°15' E 135°06'0 0.2
2016-May-21 16:33N 34°15' E 135°06'231 9.2
2016-May-20 15:26N 34°51' E 139°42'1311.5
2016-May-20 14:20N 34°53' E 139°57'910.4
2016-May-20 13:26N 34°60' E 140°06'65 9.3
2016-May-20 06:23N 35°58' E 140°43'3 0.3
2016-May-19 19:33N 35°55' E 140°40'2 2.0
2016-May-19 18:23N 35°57' E 140°42'  
2016-May-13 23:25N 35°28' E 140°42'1511.6
2016-May-13 22:09N 35°16' E 140°32'1212.2
2016-May-13 21:09N 35°06' E 140°22'914.3
2016-May-13 20:34N 35°01' E 140°14'1414.1
2016-May-13 19:33N 34°54' E 139°59'1312.7
2016-May-13 18:33N 34°48' E 139°46'  
Track history (hours):
 
Tides and Currents Weather Stations Pressure Air Temp Water Temp Dewpoint Dewpoint Depression Visibility Wind Speed Wind Dir Waves Ship Positions

Sankoumaru 31

Last reported at 2016-May-22 08:11 UTC. Time now 2016-May-30 12:36 UTC.
Position N 34°12' E 134°54'.
Warning: this ship's position is 8 days out of date.

Length 75 m; draft 5 m.

Type: Cargo ship. MMSI: 431501842.

Date/timePositionNaut miles runAvg speedWind from/ knotsBaromVisibWave heightAir tempDewpointWater temp
2016-May-22 08:11N 34°12' E 134°54'812.4
2016-May-22 07:34N 34°14' E 135°03'3 0.7
2016-May-22 02:32N 34°14' E 135°07'1 1.0
2016-May-22 01:34N 34°15' E 135°06'0 0.2
2016-May-22 00:33N 34°15' E 135°06'0 0.1
2016-May-21 23:33N 34°15' E 135°06'0 0.0
2016-May-21 22:33N 34°15' E 135°06'0 0.0
2016-May-21 21:33N 34°15' E 135°06'0 0.0
2016-May-21 20:33N 34°15' E 135°06'0 0.0
2016-May-21 19:33N 34°15' E 135°06'0 0.0
2016-May-21 18:33N 34°15' E 135°06'0 0.0
2016-May-21 17:33N 34°15' E 135°06'0 0.2
2016-May-21 16:33N 34°15' E 135°06'231 9.2
2016-May-20 15:26N 34°51' E 139°42'1311.5
2016-May-20 14:20N 34°53' E 139°57'910.4
2016-May-20 13:26N 34°60' E 140°06'65 9.3
2016-May-20 06:23N 35°58' E 140°43'3 0.3
2016-May-19 19:33N 35°55' E 140°40'2 2.0
2016-May-19 18:23N 35°57' E 140°42'  
2016-May-13 23:25N 35°28' E 140°42'1511.6
2016-May-13 22:09N 35°16' E 140°32'1212.2
2016-May-13 21:09N 35°06' E 140°22'914.3
2016-May-13 20:34N 35°01' E 140°14'1414.1
2016-May-13 19:33N 34°54' E 139°59'1312.7
2016-May-13 18:33N 34°48' E 139°46'  

Dump ship's entire track history